sensor_id;sensor_type;location;lat;lon;timestamp;P1;durP1;ratioP1;P2;durP2;ratioP2
11823;SDS011;5969;50.780;7.726;2024-03-02T00:01:26;3.45;;;3.10;;
11823;SDS011;5969;50.780;7.726;2024-03-02T00:03:54;4.88;;;3.30;;
11823;SDS011;5969;50.780;7.726;2024-03-02T00:06:21;3.40;;;3.10;;
11823;SDS011;5969;50.780;7.726;2024-03-02T00:08:48;5.03;;;3.30;;
11823;SDS011;5969;50.780;7.726;2024-03-02T00:11:16;3.78;;;3.28;;
11823;SDS011;5969;50.780;7.726;2024-03-02T00:13:44;3.75;;;3.20;;
11823;SDS011;5969;50.780;7.726;2024-03-02T00:16:12;4.22;;;3.45;;
11823;SDS011;5969;50.780;7.726;2024-03-02T00:18:39;3.63;;;3.28;;
11823;SDS011;5969;50.780;7.726;2024-03-02T00:21:07;4.03;;;3.63;;
11823;SDS011;5969;50.780;7.726;2024-03-02T00:23:36;3.50;;;3.20;;
11823;SDS011;5969;50.780;7.726;2024-03-02T00:26:03;3.80;;;3.17;;
11823;SDS011;5969;50.780;7.726;2024-03-02T00:28:33;3.28;;;2.95;;
11823;SDS011;5969;50.780;7.726;2024-03-02T00:31:01;4.20;;;3.80;;
11823;SDS011;5969;50.780;7.726;2024-03-02T00:33:30;3.33;;;3.03;;
11823;SDS011;5969;50.780;7.726;2024-03-02T00:35:57;3.83;;;3.13;;
11823;SDS011;5969;50.780;7.726;2024-03-02T00:38:25;6.32;;;3.60;;
11823;SDS011;5969;50.780;7.726;2024-03-02T00:40:53;3.42;;;2.97;;
11823;SDS011;5969;50.780;7.726;2024-03-02T00:46:08;3.22;;;2.92;;
11823;SDS011;5969;50.780;7.726;2024-03-02T00:48:35;3.25;;;2.95;;
11823;SDS011;5969;50.780;7.726;2024-03-02T00:51:03;3.35;;;2.72;;
11823;SDS011;5969;50.780;7.726;2024-03-02T00:53:30;3.78;;;2.88;;
11823;SDS011;5969;50.780;7.726;2024-03-02T00:55:58;3.67;;;3.15;;
11823;SDS011;5969;50.780;7.726;2024-03-02T00:58:25;3.45;;;2.75;;
11823;SDS011;5969;50.780;7.726;2024-03-02T01:00:52;3.88;;;3.03;;
11823;SDS011;5969;50.780;7.726;2024-03-02T01:03:21;3.80;;;3.10;;
11823;SDS011;5969;50.780;7.726;2024-03-02T01:05:49;3.10;;;2.75;;
11823;SDS011;5969;50.780;7.726;2024-03-02T01:08:16;3.92;;;3.17;;
11823;SDS011;5969;50.780;7.726;2024-03-02T01:10:43;3.60;;;3.17;;
11823;SDS011;5969;50.780;7.726;2024-03-02T01:13:10;3.22;;;2.70;;
11823;SDS011;5969;50.780;7.726;2024-03-02T01:15:37;4.53;;;3.35;;
11823;SDS011;5969;50.780;7.726;2024-03-02T01:18:04;3.90;;;3.30;;
11823;SDS011;5969;50.780;7.726;2024-03-02T01:20:32;3.45;;;3.00;;
11823;SDS011;5969;50.780;7.726;2024-03-02T01:23:00;4.35;;;2.78;;
11823;SDS011;5969;50.780;7.726;2024-03-02T01:25:27;3.05;;;2.78;;
11823;SDS011;5969;50.780;7.726;2024-03-02T01:27:54;4.82;;;2.92;;
11823;SDS011;5969;50.780;7.726;2024-03-02T01:30:21;3.05;;;2.75;;
11823;SDS011;5969;50.780;7.726;2024-03-02T01:32:48;3.55;;;3.00;;
11823;SDS011;5969;50.780;7.726;2024-03-02T01:35:15;3.17;;;2.88;;
11823;SDS011;5969;50.780;7.726;2024-03-02T01:37:43;3.42;;;3.10;;
11823;SDS011;5969;50.780;7.726;2024-03-02T01:40:11;3.65;;;3.17;;
11823;SDS011;5969;50.780;7.726;2024-03-02T01:42:38;3.15;;;2.85;;
11823;SDS011;5969;50.780;7.726;2024-03-02T01:45:06;4.82;;;3.10;;
11823;SDS011;5969;50.780;7.726;2024-03-02T01:47:33;4.75;;;3.20;;
11823;SDS011;5969;50.780;7.726;2024-03-02T01:50:03;4.22;;;3.17;;
11823;SDS011;5969;50.780;7.726;2024-03-02T01:52:30;4.45;;;3.38;;
11823;SDS011;5969;50.780;7.726;2024-03-02T01:54:59;3.95;;;3.40;;
11823;SDS011;5969;50.780;7.726;2024-03-02T01:57:26;4.03;;;3.60;;
11823;SDS011;5969;50.780;7.726;2024-03-02T01:59:53;3.97;;;3.38;;
11823;SDS011;5969;50.780;7.726;2024-03-02T02:02:20;4.53;;;4.07;;
11823;SDS011;5969;50.780;7.726;2024-03-02T02:04:47;5.32;;;3.80;;
11823;SDS011;5969;50.780;7.726;2024-03-02T02:07:14;4.85;;;4.15;;
11823;SDS011;5969;50.780;7.726;2024-03-02T02:09:41;6.07;;;3.80;;
11823;SDS011;5969;50.780;7.726;2024-03-02T02:12:10;4.80;;;3.85;;
11823;SDS011;5969;50.780;7.726;2024-03-02T02:14:37;5.93;;;4.30;;
11823;SDS011;5969;50.780;7.726;2024-03-02T02:17:05;5.25;;;4.38;;
11823;SDS011;5969;50.780;7.726;2024-03-02T02:19:32;5.22;;;4.40;;
11823;SDS011;5969;50.780;7.726;2024-03-02T02:22:00;4.95;;;4.40;;
11823;SDS011;5969;50.780;7.726;2024-03-02T02:24:27;5.85;;;4.65;;
11823;SDS011;5969;50.780;7.726;2024-03-02T02:26:54;5.82;;;4.35;;
11823;SDS011;5969;50.780;7.726;2024-03-02T02:29:21;5.03;;;4.30;;
11823;SDS011;5969;50.780;7.726;2024-03-02T02:31:48;4.43;;;4.03;;
11823;SDS011;5969;50.780;7.726;2024-03-02T02:34:16;4.53;;;4.03;;
11823;SDS011;5969;50.780;7.726;2024-03-02T02:36:43;7.35;;;4.60;;
11823;SDS011;5969;50.780;7.726;2024-03-02T02:39:13;6.47;;;4.68;;
11823;SDS011;5969;50.780;7.726;2024-03-02T02:41:40;8.68;;;5.00;;
11823;SDS011;5969;50.780;7.726;2024-03-02T02:44:07;6.93;;;4.65;;
11823;SDS011;5969;50.780;7.726;2024-03-02T02:46:36;6.88;;;5.20;;
11823;SDS011;5969;50.780;7.726;2024-03-02T02:49:04;6.55;;;4.60;;
11823;SDS011;5969;50.780;7.726;2024-03-02T02:51:31;6.60;;;5.10;;
11823;SDS011;5969;50.780;7.726;2024-03-02T02:53:58;6.53;;;4.95;;
11823;SDS011;5969;50.780;7.726;2024-03-02T02:56:26;7.03;;;4.50;;
11823;SDS011;5969;50.780;7.726;2024-03-02T02:58:53;6.18;;;5.13;;
11823;SDS011;5969;50.780;7.726;2024-03-02T03:01:20;7.32;;;5.30;;
11823;SDS011;5969;50.780;7.726;2024-03-02T03:03:52;5.45;;;4.95;;
11823;SDS011;5969;50.780;7.726;2024-03-02T03:06:19;6.07;;;4.50;;
11823;SDS011;5969;50.780;7.726;2024-03-02T03:08:47;6.38;;;4.97;;
11823;SDS011;5969;50.780;7.726;2024-03-02T03:11:14;6.53;;;5.50;;
11823;SDS011;5969;50.780;7.726;2024-03-02T03:13:42;5.47;;;4.93;;
11823;SDS011;5969;50.780;7.726;2024-03-02T03:16:09;5.28;;;4.72;;
11823;SDS011;5969;50.780;7.726;2024-03-02T03:18:36;5.32;;;4.70;;
11823;SDS011;5969;50.780;7.726;2024-03-02T03:21:03;5.32;;;4.28;;
11823;SDS011;5969;50.780;7.726;2024-03-02T03:23:30;7.40;;;4.45;;
11823;SDS011;5969;50.780;7.726;2024-03-02T03:25:57;5.32;;;4.60;;
11823;SDS011;5969;50.780;7.726;2024-03-02T03:28:25;5.10;;;3.92;;
11823;SDS011;5969;50.780;7.726;2024-03-02T03:30:53;5.82;;;4.50;;
11823;SDS011;5969;50.780;7.726;2024-03-02T03:33:20;5.80;;;4.00;;
11823;SDS011;5969;50.780;7.726;2024-03-02T03:35:47;4.55;;;4.05;;
11823;SDS011;5969;50.780;7.726;2024-03-02T03:38:14;4.93;;;4.15;;
11823;SDS011;5969;50.780;7.726;2024-03-02T03:40:41;4.50;;;3.88;;
11823;SDS011;5969;50.780;7.726;2024-03-02T03:43:09;4.80;;;3.72;;
11823;SDS011;5969;50.780;7.726;2024-03-02T03:45:36;5.28;;;3.85;;
11823;SDS011;5969;50.780;7.726;2024-03-02T03:48:04;4.45;;;3.95;;
11823;SDS011;5969;50.780;7.726;2024-03-02T03:50:31;5.45;;;4.43;;
11823;SDS011;5969;50.780;7.726;2024-03-02T03:52:58;6.80;;;4.30;;
11823;SDS011;5969;50.780;7.726;2024-03-02T03:55:25;4.90;;;4.32;;
11823;SDS011;5969;50.780;7.726;2024-03-02T03:57:52;7.00;;;4.80;;
11823;SDS011;5969;50.780;7.726;2024-03-02T04:00:19;5.40;;;4.43;;
11823;SDS011;5969;50.780;7.726;2024-03-02T04:02:47;5.82;;;4.85;;
11823;SDS011;5969;50.780;7.726;2024-03-02T04:05:15;6.60;;;4.88;;
11823;SDS011;5969;50.780;7.726;2024-03-02T04:07:42;7.40;;;5.10;;
11823;SDS011;5969;50.780;7.726;2024-03-02T04:10:09;5.88;;;5.07;;
11823;SDS011;5969;50.780;7.726;2024-03-02T04:12:37;7.18;;;5.35;;
11823;SDS011;5969;50.780;7.726;2024-03-02T04:15:05;6.72;;;4.82;;
11823;SDS011;5969;50.780;7.726;2024-03-02T04:17:32;5.95;;;4.90;;
11823;SDS011;5969;50.780;7.726;2024-03-02T04:20:00;6.18;;;5.25;;
11823;SDS011;5969;50.780;7.726;2024-03-02T04:22:31;6.63;;;5.60;;
11823;SDS011;5969;50.780;7.726;2024-03-02T04:24:59;5.63;;;5.00;;
11823;SDS011;5969;50.780;7.726;2024-03-02T04:27:26;9.35;;;5.38;;
11823;SDS011;5969;50.780;7.726;2024-03-02T04:29:53;6.25;;;5.32;;
11823;SDS011;5969;50.780;7.726;2024-03-02T04:32:20;6.88;;;5.45;;
11823;SDS011;5969;50.780;7.726;2024-03-02T04:34:47;5.55;;;4.93;;
11823;SDS011;5969;50.780;7.726;2024-03-02T04:37:14;5.97;;;4.97;;
11823;SDS011;5969;50.780;7.726;2024-03-02T04:39:43;5.53;;;4.95;;
11823;SDS011;5969;50.780;7.726;2024-03-02T04:42:10;5.15;;;4.18;;
11823;SDS011;5969;50.780;7.726;2024-03-02T04:44:37;5.78;;;4.88;;
11823;SDS011;5969;50.780;7.726;2024-03-02T04:47:04;6.65;;;4.78;;
11823;SDS011;5969;50.780;7.726;2024-03-02T04:49:31;6.80;;;5.43;;
11823;SDS011;5969;50.780;7.726;2024-03-02T04:51:58;6.45;;;4.72;;
11823;SDS011;5969;50.780;7.726;2024-03-02T04:54:25;6.75;;;5.07;;
11823;SDS011;5969;50.780;7.726;2024-03-02T04:56:54;6.10;;;4.97;;
11823;SDS011;5969;50.780;7.726;2024-03-02T04:59:21;5.93;;;4.55;;
11823;SDS011;5969;50.780;7.726;2024-03-02T05:01:48;5.82;;;4.43;;
11823;SDS011;5969;50.780;7.726;2024-03-02T05:04:15;6.43;;;5.47;;
11823;SDS011;5969;50.780;7.726;2024-03-02T05:06:43;7.55;;;5.82;;
11823;SDS011;5969;50.780;7.726;2024-03-02T05:09:15;7.03;;;5.25;;
11823;SDS011;5969;50.780;7.726;2024-03-02T05:11:42;6.63;;;5.70;;
11823;SDS011;5969;50.780;7.726;2024-03-02T05:14:28;8.68;;;5.35;;
11823;SDS011;5969;50.780;7.726;2024-03-02T05:16:55;7.25;;;5.57;;
11823;SDS011;5969;50.780;7.726;2024-03-02T05:19:22;6.72;;;5.32;;
11823;SDS011;5969;50.780;7.726;2024-03-02T05:21:50;6.43;;;5.38;;
11823;SDS011;5969;50.780;7.726;2024-03-02T05:24:17;6.72;;;5.68;;
11823;SDS011;5969;50.780;7.726;2024-03-02T05:26:44;7.03;;;5.78;;
11823;SDS011;5969;50.780;7.726;2024-03-02T05:29:11;6.93;;;5.50;;
11823;SDS011;5969;50.780;7.726;2024-03-02T05:31:39;6.53;;;5.20;;
11823;SDS011;5969;50.780;7.726;2024-03-02T05:34:07;6.53;;;5.18;;
11823;SDS011;5969;50.780;7.726;2024-03-02T05:36:34;6.00;;;5.20;;
11823;SDS011;5969;50.780;7.726;2024-03-02T05:39:03;7.50;;;5.25;;
11823;SDS011;5969;50.780;7.726;2024-03-02T05:41:34;6.95;;;4.93;;
11823;SDS011;5969;50.780;7.726;2024-03-02T05:44:01;5.68;;;5.07;;
11823;SDS011;5969;50.780;7.726;2024-03-02T05:46:28;7.65;;;4.95;;
11823;SDS011;5969;50.780;7.726;2024-03-02T05:48:56;5.95;;;5.07;;
11823;SDS011;5969;50.780;7.726;2024-03-02T05:51:23;5.70;;;5.10;;
11823;SDS011;5969;50.780;7.726;2024-03-02T05:53:50;7.25;;;5.50;;
11823;SDS011;5969;50.780;7.726;2024-03-02T05:56:17;7.72;;;5.28;;
11823;SDS011;5969;50.780;7.726;2024-03-02T05:58:44;5.93;;;4.95;;
11823;SDS011;5969;50.780;7.726;2024-03-02T06:01:22;6.20;;;5.00;;
11823;SDS011;5969;50.780;7.726;2024-03-02T06:03:53;7.45;;;5.35;;
11823;SDS011;5969;50.780;7.726;2024-03-02T06:06:22;5.60;;;4.80;;
11823;SDS011;5969;50.780;7.726;2024-03-02T06:08:49;5.38;;;4.43;;
11823;SDS011;5969;50.780;7.726;2024-03-02T06:11:16;5.90;;;4.28;;
11823;SDS011;5969;50.780;7.726;2024-03-02T06:13:44;4.60;;;3.88;;
11823;SDS011;5969;50.780;7.726;2024-03-02T06:16:11;7.88;;;4.53;;
11823;SDS011;5969;50.780;7.726;2024-03-02T06:18:38;5.13;;;4.25;;
11823;SDS011;5969;50.780;7.726;2024-03-02T06:21:05;5.22;;;4.22;;
11823;SDS011;5969;50.780;7.726;2024-03-02T06:23:34;5.82;;;3.90;;
11823;SDS011;5969;50.780;7.726;2024-03-02T06:26:01;5.07;;;3.58;;
11823;SDS011;5969;50.780;7.726;2024-03-02T06:28:28;4.82;;;4.07;;
11823;SDS011;5969;50.780;7.726;2024-03-02T06:30:55;5.63;;;4.13;;
11823;SDS011;5969;50.780;7.726;2024-03-02T06:33:22;6.07;;;4.13;;
11823;SDS011;5969;50.780;7.726;2024-03-02T06:35:49;4.55;;;3.67;;
11823;SDS011;5969;50.780;7.726;2024-03-02T06:38:17;4.88;;;3.80;;
11823;SDS011;5969;50.780;7.726;2024-03-02T06:40:45;5.38;;;3.50;;
11823;SDS011;5969;50.780;7.726;2024-03-02T06:43:12;4.28;;;3.58;;
11823;SDS011;5969;50.780;7.726;2024-03-02T06:45:39;4.85;;;3.80;;
11823;SDS011;5969;50.780;7.726;2024-03-02T06:48:07;5.50;;;3.50;;
11823;SDS011;5969;50.780;7.726;2024-03-02T06:50:34;4.72;;;3.90;;
11823;SDS011;5969;50.780;7.726;2024-03-02T06:53:01;4.72;;;3.85;;
11823;SDS011;5969;50.780;7.726;2024-03-02T06:55:29;4.55;;;3.63;;
11823;SDS011;5969;50.780;7.726;2024-03-02T06:57:57;4.80;;;3.63;;
11823;SDS011;5969;50.780;7.726;2024-03-02T07:00:24;5.38;;;3.38;;
11823;SDS011;5969;50.780;7.726;2024-03-02T07:02:52;4.57;;;3.97;;
11823;SDS011;5969;50.780;7.726;2024-03-02T07:05:19;8.25;;;6.47;;
11823;SDS011;5969;50.780;7.726;2024-03-02T07:07:46;4.50;;;4.10;;
11823;SDS011;5969;50.780;7.726;2024-03-02T07:10:13;7.78;;;6.95;;
11823;SDS011;5969;50.780;7.726;2024-03-02T07:12:40;7.30;;;4.30;;
11823;SDS011;5969;50.780;7.726;2024-03-02T07:15:09;3.85;;;3.13;;
11823;SDS011;5969;50.780;7.726;2024-03-02T07:18:08;3.50;;;3.13;;
11823;SDS011;5969;50.780;7.726;2024-03-02T07:20:35;4.47;;;3.38;;
11823;SDS011;5969;50.780;7.726;2024-03-02T07:23:04;4.03;;;3.17;;
11823;SDS011;5969;50.780;7.726;2024-03-02T07:25:31;4.25;;;3.75;;
11823;SDS011;5969;50.780;7.726;2024-03-02T07:27:58;4.00;;;3.28;;
11823;SDS011;5969;50.780;7.726;2024-03-02T07:30:27;4.25;;;3.47;;
11823;SDS011;5969;50.780;7.726;2024-03-02T07:32:54;4.03;;;3.50;;
11823;SDS011;5969;50.780;7.726;2024-03-02T07:35:21;5.35;;;3.55;;
11823;SDS011;5969;50.780;7.726;2024-03-02T07:37:52;3.83;;;3.20;;
11823;SDS011;5969;50.780;7.726;2024-03-02T07:40:19;4.25;;;3.30;;
11823;SDS011;5969;50.780;7.726;2024-03-02T07:42:46;3.13;;;2.83;;
11823;SDS011;5969;50.780;7.726;2024-03-02T07:45:13;3.28;;;2.90;;
11823;SDS011;5969;50.780;7.726;2024-03-02T07:47:42;5.18;;;3.28;;
11823;SDS011;5969;50.780;7.726;2024-03-02T07:50:09;4.60;;;3.30;;
11823;SDS011;5969;50.780;7.726;2024-03-02T07:52:36;3.95;;;3.17;;
11823;SDS011;5969;50.780;7.726;2024-03-02T07:55:04;3.17;;;2.65;;
11823;SDS011;5969;50.780;7.726;2024-03-02T07:57:31;3.80;;;2.78;;
11823;SDS011;5969;50.780;7.726;2024-03-02T07:59:58;3.33;;;2.78;;
11823;SDS011;5969;50.780;7.726;2024-03-02T08:02:25;3.70;;;2.95;;
11823;SDS011;5969;50.780;7.726;2024-03-02T08:04:54;3.10;;;2.80;;
11823;SDS011;5969;50.780;7.726;2024-03-02T08:07:21;4.43;;;2.50;;
11823;SDS011;5969;50.780;7.726;2024-03-02T08:09:48;3.33;;;2.65;;
11823;SDS011;5969;50.780;7.726;2024-03-02T08:12:15;4.18;;;2.63;;
11823;SDS011;5969;50.780;7.726;2024-03-02T08:14:43;4.20;;;2.85;;
11823;SDS011;5969;50.780;7.726;2024-03-02T08:17:10;3.38;;;2.40;;
11823;SDS011;5969;50.780;7.726;2024-03-02T08:19:37;3.05;;;2.58;;
11823;SDS011;5969;50.780;7.726;2024-03-02T08:22:06;3.45;;;2.75;;
11823;SDS011;5969;50.780;7.726;2024-03-02T08:24:33;5.43;;;2.90;;
11823;SDS011;5969;50.780;7.726;2024-03-02T08:27:00;3.78;;;3.00;;
11823;SDS011;5969;50.780;7.726;2024-03-02T08:29:28;3.40;;;2.65;;
11823;SDS011;5969;50.780;7.726;2024-03-02T08:31:55;4.10;;;2.53;;
11823;SDS011;5969;50.780;7.726;2024-03-02T08:34:22;4.40;;;2.70;;
11823;SDS011;5969;50.780;7.726;2024-03-02T08:36:49;5.68;;;2.80;;
11823;SDS011;5969;50.780;7.726;2024-03-02T08:39:18;3.55;;;2.50;;
11823;SDS011;5969;50.780;7.726;2024-03-02T08:41:46;3.72;;;2.65;;
11823;SDS011;5969;50.780;7.726;2024-03-02T08:44:13;3.25;;;2.20;;
11823;SDS011;5969;50.780;7.726;2024-03-02T08:46:40;3.00;;;2.50;;
11823;SDS011;5969;50.780;7.726;2024-03-02T08:49:07;2.80;;;2.30;;
11823;SDS011;5969;50.780;7.726;2024-03-02T08:51:34;2.67;;;2.10;;
11823;SDS011;5969;50.780;7.726;2024-03-02T08:54:02;3.38;;;2.42;;
11823;SDS011;5969;50.780;7.726;2024-03-02T08:56:31;4.63;;;2.53;;
11823;SDS011;5969;50.780;7.726;2024-03-02T08:58:58;2.75;;;2.30;;
11823;SDS011;5969;50.780;7.726;2024-03-02T09:01:25;2.50;;;2.30;;
11823;SDS011;5969;50.780;7.726;2024-03-02T09:03:52;2.95;;;2.38;;
11823;SDS011;5969;50.780;7.726;2024-03-02T09:06:19;2.72;;;2.00;;
11823;SDS011;5969;50.780;7.726;2024-03-02T09:08:46;3.30;;;2.30;;
11823;SDS011;5969;50.780;7.726;2024-03-02T09:11:15;2.50;;;1.85;;
11823;SDS011;5969;50.780;7.726;2024-03-02T09:13:43;2.40;;;2.00;;
11823;SDS011;5969;50.780;7.726;2024-03-02T09:16:10;2.97;;;1.85;;
11823;SDS011;5969;50.780;7.726;2024-03-02T09:18:37;3.20;;;2.00;;
11823;SDS011;5969;50.780;7.726;2024-03-02T09:21:04;2.65;;;1.92;;
11823;SDS011;5969;50.780;7.726;2024-03-02T09:23:33;2.30;;;1.85;;
11823;SDS011;5969;50.780;7.726;2024-03-02T09:26:00;3.10;;;2.03;;
11823;SDS011;5969;50.780;7.726;2024-03-02T09:28:28;2.30;;;2.10;;
11823;SDS011;5969;50.780;7.726;2024-03-02T09:30:56;2.83;;;2.30;;
11823;SDS011;5969;50.780;7.726;2024-03-02T09:33:23;3.70;;;2.22;;
11823;SDS011;5969;50.780;7.726;2024-03-02T09:35:50;2.55;;;2.25;;
11823;SDS011;5969;50.780;7.726;2024-03-02T09:38:17;2.67;;;2.30;;
11823;SDS011;5969;50.780;7.726;2024-03-02T09:40:45;3.30;;;2.50;;
11823;SDS011;5969;50.780;7.726;2024-03-02T09:43:12;5.82;;;2.60;;
11823;SDS011;5969;50.780;7.726;2024-03-02T09:45:39;2.97;;;2.67;;
11823;SDS011;5969;50.780;7.726;2024-03-02T09:48:08;3.50;;;2.70;;
11823;SDS011;5969;50.780;7.726;2024-03-02T09:50:35;2.90;;;2.40;;
11823;SDS011;5969;50.780;7.726;2024-03-02T09:53:02;3.70;;;2.65;;
11823;SDS011;5969;50.780;7.726;2024-03-02T09:55:29;3.80;;;2.95;;
11823;SDS011;5969;50.780;7.726;2024-03-02T09:57:56;3.78;;;3.38;;
11823;SDS011;5969;50.780;7.726;2024-03-02T10:00:24;3.30;;;2.90;;
11823;SDS011;5969;50.780;7.726;2024-03-02T10:02:51;4.57;;;3.00;;
11823;SDS011;5969;50.780;7.726;2024-03-02T10:05:26;4.22;;;2.78;;
11823;SDS011;5969;50.780;7.726;2024-03-02T10:07:59;5.50;;;3.15;;
11823;SDS011;5969;50.780;7.726;2024-03-02T10:10:34;3.22;;;2.67;;
11823;SDS011;5969;50.780;7.726;2024-03-02T10:13:05;4.28;;;2.50;;
11823;SDS011;5969;50.780;7.726;2024-03-02T10:15:32;3.88;;;2.28;;
11823;SDS011;5969;50.780;7.726;2024-03-02T10:17:59;2.55;;;2.30;;
11823;SDS011;5969;50.780;7.726;2024-03-02T10:20:28;4.00;;;2.47;;
11823;SDS011;5969;50.780;7.726;2024-03-02T10:22:55;3.15;;;2.30;;
11823;SDS011;5969;50.780;7.726;2024-03-02T10:25:29;2.40;;;2.20;;
11823;SDS011;5969;50.780;7.726;2024-03-02T10:27:57;2.33;;;2.13;;
11823;SDS011;5969;50.780;7.726;2024-03-02T10:30:24;2.35;;;1.90;;
11823;SDS011;5969;50.780;7.726;2024-03-02T10:32:52;2.42;;;2.22;;
11823;SDS011;5969;50.780;7.726;2024-03-02T10:35:20;3.05;;;2.40;;
11823;SDS011;5969;50.780;7.726;2024-03-02T10:37:49;3.47;;;2.55;;
11823;SDS011;5969;50.780;7.726;2024-03-02T10:40:17;2.38;;;1.92;;
11823;SDS011;5969;50.780;7.726;2024-03-02T10:42:44;2.40;;;2.10;;
11823;SDS011;5969;50.780;7.726;2024-03-02T10:45:12;3.60;;;1.90;;
11823;SDS011;5969;50.780;7.726;2024-03-02T10:47:40;1.88;;;1.70;;
11823;SDS011;5969;50.780;7.726;2024-03-02T10:50:08;2.80;;;1.73;;
11823;SDS011;5969;50.780;7.726;2024-03-02T10:52:35;2.38;;;2.15;;
11823;SDS011;5969;50.780;7.726;2024-03-02T10:55:04;4.43;;;2.17;;
11823;SDS011;5969;50.780;7.726;2024-03-02T10:57:33;2.28;;;1.80;;
11823;SDS011;5969;50.780;7.726;2024-03-02T11:00:05;2.90;;;1.88;;
11823;SDS011;5969;50.780;7.726;2024-03-02T11:02:32;2.20;;;1.90;;
11823;SDS011;5969;50.780;7.726;2024-03-02T11:05:02;2.28;;;2.08;;
11823;SDS011;5969;50.780;7.726;2024-03-02T11:07:33;2.42;;;2.00;;
11823;SDS011;5969;50.780;7.726;2024-03-02T11:10:01;3.70;;;2.00;;
11823;SDS011;5969;50.780;7.726;2024-03-02T11:12:35;1.80;;;1.70;;
11823;SDS011;5969;50.780;7.726;2024-03-02T11:15:03;3.45;;;2.33;;
11823;SDS011;5969;50.780;7.726;2024-03-02T11:17:31;2.33;;;2.08;;
11823;SDS011;5969;50.780;7.726;2024-03-02T11:19:58;2.50;;;2.20;;
11823;SDS011;5969;50.780;7.726;2024-03-02T11:22:26;2.38;;;2.00;;
11823;SDS011;5969;50.780;7.726;2024-03-02T11:24:53;3.78;;;2.00;;
11823;SDS011;5969;50.780;7.726;2024-03-02T11:30:04;2.35;;;1.85;;
11823;SDS011;5969;50.780;7.726;2024-03-02T11:32:31;2.30;;;2.10;;
11823;SDS011;5969;50.780;7.726;2024-03-02T11:34:59;2.10;;;1.90;;
11823;SDS011;5969;50.780;7.726;2024-03-02T11:37:26;1.98;;;1.80;;
11823;SDS011;5969;50.780;7.726;2024-03-02T11:39:53;3.38;;;2.13;;
11823;SDS011;5969;50.780;7.726;2024-03-02T11:42:20;3.22;;;2.10;;
11823;SDS011;5969;50.780;7.726;2024-03-02T11:44:47;3.53;;;2.45;;
11823;SDS011;5969;50.780;7.726;2024-03-02T11:47:16;2.60;;;2.08;;
11823;SDS011;5969;50.780;7.726;2024-03-02T11:49:44;4.18;;;2.00;;
11823;SDS011;5969;50.780;7.726;2024-03-02T11:52:12;2.40;;;2.00;;
11823;SDS011;5969;50.780;7.726;2024-03-02T11:54:40;3.47;;;2.50;;
11823;SDS011;5969;50.780;7.726;2024-03-02T11:57:11;3.55;;;2.50;;
11823;SDS011;5969;50.780;7.726;2024-03-02T11:59:39;3.70;;;2.60;;
11823;SDS011;5969;50.780;7.726;2024-03-02T12:02:06;2.55;;;2.35;;
11823;SDS011;5969;50.780;7.726;2024-03-02T12:04:35;2.58;;;2.38;;
11823;SDS011;5969;50.780;7.726;2024-03-02T12:07:03;2.50;;;2.20;;
11823;SDS011;5969;50.780;7.726;2024-03-02T12:09:30;3.45;;;2.28;;
11823;SDS011;5969;50.780;7.726;2024-03-02T12:12:01;2.42;;;2.13;;
11823;SDS011;5969;50.780;7.726;2024-03-02T12:14:28;2.28;;;2.08;;
11823;SDS011;5969;50.780;7.726;2024-03-02T12:16:55;2.40;;;2.20;;
11823;SDS011;5969;50.780;7.726;2024-03-02T12:19:23;3.53;;;2.47;;
11823;SDS011;5969;50.780;7.726;2024-03-02T12:21:52;2.65;;;1.95;;
11823;SDS011;5969;50.780;7.726;2024-03-02T12:24:20;2.50;;;2.10;;
11823;SDS011;5969;50.780;7.726;2024-03-02T12:26:48;3.80;;;2.20;;
11823;SDS011;5969;50.780;7.726;2024-03-02T12:29:16;2.83;;;2.22;;
11823;SDS011;5969;50.780;7.726;2024-03-02T12:31:43;2.42;;;1.95;;
11823;SDS011;5969;50.780;7.726;2024-03-02T12:34:11;3.20;;;2.60;;
11823;SDS011;5969;50.780;7.726;2024-03-02T12:36:39;2.58;;;2.17;;
11823;SDS011;5969;50.780;7.726;2024-03-02T12:39:08;2.10;;;1.80;;
11823;SDS011;5969;50.780;7.726;2024-03-02T12:41:36;3.28;;;2.03;;
11823;SDS011;5969;50.780;7.726;2024-03-02T12:44:03;2.00;;;1.70;;
11823;SDS011;5969;50.780;7.726;2024-03-02T12:46:30;3.45;;;1.77;;
11823;SDS011;5969;50.780;7.726;2024-03-02T12:48:58;5.03;;;2.25;;
11823;SDS011;5969;50.780;7.726;2024-03-02T12:51:26;1.88;;;1.60;;
11823;SDS011;5969;50.780;7.726;2024-03-02T12:53:53;2.38;;;1.75;;
11823;SDS011;5969;50.780;7.726;2024-03-02T12:56:22;2.35;;;1.52;;
11823;SDS011;5969;50.780;7.726;2024-03-02T12:58:52;1.75;;;1.65;;
11823;SDS011;5969;50.780;7.726;2024-03-02T13:01:20;1.42;;;1.33;;
11823;SDS011;5969;50.780;7.726;2024-03-02T13:03:48;1.63;;;1.45;;
11823;SDS011;5969;50.780;7.726;2024-03-02T13:06:16;1.70;;;1.60;;
11823;SDS011;5969;50.780;7.726;2024-03-02T13:08:44;1.80;;;1.50;;
11823;SDS011;5969;50.780;7.726;2024-03-02T13:11:12;1.83;;;1.60;;
11823;SDS011;5969;50.780;7.726;2024-03-02T13:13:40;2.00;;;1.45;;
11823;SDS011;5969;50.780;7.726;2024-03-02T13:16:08;2.00;;;1.80;;
11823;SDS011;5969;50.780;7.726;2024-03-02T13:18:35;1.95;;;1.70;;
11823;SDS011;5969;50.780;7.726;2024-03-02T13:21:03;2.30;;;1.80;;
11823;SDS011;5969;50.780;7.726;2024-03-02T13:23:30;1.52;;;1.42;;
11823;SDS011;5969;50.780;7.726;2024-03-02T13:25:57;2.30;;;1.90;;
11823;SDS011;5969;50.780;7.726;2024-03-02T13:28:24;2.53;;;1.52;;
11823;SDS011;5969;50.780;7.726;2024-03-02T13:30:52;3.15;;;1.90;;
11823;SDS011;5969;50.780;7.726;2024-03-02T13:33:20;2.15;;;1.85;;
11823;SDS011;5969;50.780;7.726;2024-03-02T13:35:48;3.03;;;2.40;;
11823;SDS011;5969;50.780;7.726;2024-03-02T13:38:16;2.72;;;2.00;;
11823;SDS011;5969;50.780;7.726;2024-03-02T13:40:43;4.28;;;1.98;;
11823;SDS011;5969;50.780;7.726;2024-03-02T13:43:10;2.22;;;1.75;;
11823;SDS011;5969;50.780;7.726;2024-03-02T13:45:37;2.08;;;1.80;;
11823;SDS011;5969;50.780;7.726;2024-03-02T13:48:07;2.22;;;1.75;;
11823;SDS011;5969;50.780;7.726;2024-03-02T13:50:34;2.78;;;2.00;;
11823;SDS011;5969;50.780;7.726;2024-03-02T13:53:01;3.08;;;1.83;;
11823;SDS011;5969;50.780;7.726;2024-03-02T13:55:29;2.40;;;1.55;;
11823;SDS011;5969;50.780;7.726;2024-03-02T13:57:56;2.03;;;1.40;;
11823;SDS011;5969;50.780;7.726;2024-03-02T14:00:24;2.95;;;1.52;;
11823;SDS011;5969;50.780;7.726;2024-03-02T14:02:51;3.13;;;1.33;;
11823;SDS011;5969;50.780;7.726;2024-03-02T14:05:19;2.35;;;1.55;;
11823;SDS011;5969;50.780;7.726;2024-03-02T14:07:46;2.53;;;1.67;;
11823;SDS011;5969;50.780;7.726;2024-03-02T14:10:14;4.15;;;1.60;;
11823;SDS011;5969;50.780;7.726;2024-03-02T14:12:41;1.60;;;1.50;;
11823;SDS011;5969;50.780;7.726;2024-03-02T14:15:08;1.83;;;1.60;;
11823;SDS011;5969;50.780;7.726;2024-03-02T14:17:35;1.83;;;1.50;;
11823;SDS011;5969;50.780;7.726;2024-03-02T14:20:03;2.00;;;1.42;;
11823;SDS011;5969;50.780;7.726;2024-03-02T14:22:32;2.85;;;1.33;;
11823;SDS011;5969;50.780;7.726;2024-03-02T14:24:59;2.05;;;1.60;;
11823;SDS011;5969;50.780;7.726;2024-03-02T14:27:26;1.42;;;1.30;;
11823;SDS011;5969;50.780;7.726;2024-03-02T14:29:53;1.42;;;1.30;;
11823;SDS011;5969;50.780;7.726;2024-03-02T14:32:20;1.38;;;1.13;;
11823;SDS011;5969;50.780;7.726;2024-03-02T14:34:47;1.10;;;1.00;;
11823;SDS011;5969;50.780;7.726;2024-03-02T14:37:14;2.20;;;1.42;;
11823;SDS011;5969;50.780;7.726;2024-03-02T14:39:43;2.05;;;1.30;;
11823;SDS011;5969;50.780;7.726;2024-03-02T14:42:10;2.20;;;1.40;;
11823;SDS011;5969;50.780;7.726;2024-03-02T14:44:37;1.40;;;1.20;;
11823;SDS011;5969;50.780;7.726;2024-03-02T14:47:04;2.05;;;1.30;;
11823;SDS011;5969;50.780;7.726;2024-03-02T14:49:32;2.28;;;1.20;;
11823;SDS011;5969;50.780;7.726;2024-03-02T14:52:03;1.80;;;1.23;;
11823;SDS011;5969;50.780;7.726;2024-03-02T14:54:30;2.20;;;1.27;;
11823;SDS011;5969;50.780;7.726;2024-03-02T14:56:58;3.05;;;1.20;;
11823;SDS011;5969;50.780;7.726;2024-03-02T14:59:27;1.77;;;1.20;;
11823;SDS011;5969;50.780;7.726;2024-03-02T15:01:54;2.20;;;1.35;;
11823;SDS011;5969;50.780;7.726;2024-03-02T15:04:21;1.77;;;1.20;;
11823;SDS011;5969;50.780;7.726;2024-03-02T15:06:49;2.25;;;1.10;;
11823;SDS011;5969;50.780;7.726;2024-03-02T15:09:16;2.17;;;1.10;;